Aérodrome :
LOGIN :

S'inscrire | Disclaimer

   EN    FR    IT 

 










Légende :    VFR   VFR Marginal   IFR   IFR Intensif   IFR Très Intensif
Visi : 
Plafond : 
>= 8 km
>= 3000ft
5 à 8 km
1000 à 3000 ft
1500m à 5 km
500 à 1000 ft
800 à 1500m
200 à 500 ft
< 800m
< 200 ft
Symboles :   Orages  Brouillard  Fortes neiges  Fortes précipitations  Vent > 20 kt
SIGMETs :   Divers  Orages  Givrage  Turbulence  Onde Orograph.  Cendres Volcan.






- Altitude de l'aérodrome : 218 ft
- Code IATA : LBG


LFPB - Paris / Le Bourget

DERNIER METAR :
  • 280600Z AUTO 23002KT 9000 OVC017 01/00 Q1023 TEMPO 4000 BR BKN014

METARs EXPIRÉS :
  • 280530Z AUTO 23002KT 7000 BKN017 00/M00 Q1023 TEMPO 4000 BR BKN014
  • 280500Z AUTO VRB02KT 6000 R27/1400U BKN018 01/M00 Q1022 NOSIG
  • 280430Z AUTO 00000KT 5000 BR NSC 01/M00 Q1022 NOSIG
  • 280400Z AUTO 00000KT 5000 BR NSC 01/00 Q1022 NOSIG
  • 280330Z AUTO 29002KT 7000 NSC 01/00 Q1022 NOSIG
  • 280300Z AUTO 21002KT 7000 NSC 01/01 Q1022 NOSIG
  • 280230Z AUTO 16002KT 7000 NSC 02/01 Q1022 NOSIG
  • 280200Z AUTO VRB02KT CAVOK 02/01 Q1022 NOSIG
  • 280130Z AUTO VRB01KT CAVOK 03/01 Q1022 NOSIG

TAF TAF LFPB
Valide du 28 à 06h jusqu'au 29 à 06h UTC


280500Z 2806/2906 27003KT 6000 BKN018
PROB40
TEMPO 2806/2809 4000 BR BKN014
BECMG 2814/2816 20010KT
BECMG 2900/2902 BKN013
TEMPO 2903/2906 4000 -RADZ BKN009
ATIS : +33 1 48 62 43 92



MET'MAP, la Météo Aéronautique d'un coup d'oeil ! - Copyright ORBIFLY Décembre 2007 - Disclaimer

ORBIFLY MET'MAP TEAM :

Programmation & Développement : Alexandra Zaïnal
Sur une idée originale de : Baudouin d'Aumeries
Soutien technique & logistique : Manuel Goepfert
Assistance : Marc-Olivier Méhu




SOURCES & CREDITS :

   NOAA